Time;durP1;ratioP1;P1;durP2;ratioP2;P2;SDS_P1;SDS_P2;PMS_P1;PMS_P2;Temp;Humidity;BMP_temperature;BMP_pressure;BME280_temperature;BME280_humidity;BME280_pressure;Samples;Min_cycle;Max_cycle;Signal;HPM_P1;HPM_P2
2023/01/19 00:00:34;;;;;;;13.37;8.77;;;2.30;99.90;;;;;;5030172;28;20200;-59
2023/01/19 00:03:03;;;;;;;16.43;8.53;;;2.30;99.90;;;;;;5032481;28;20199;-59
2023/01/19 00:05:30;;;;;;;10.33;7.87;;;2.30;99.90;;;;;;5031519;28;20660;-61
2023/01/19 00:08:13;;;;;;;11.63;8.53;;;2.30;99.90;;;;;;5031424;28;20574;-59
2023/01/19 00:10:46;;;;;;;13.90;9.20;;;2.30;99.90;;;;;;5030379;28;20206;-60
2023/01/19 00:13:14;;;;;;;14.90;7.97;;;2.30;99.90;;;;;;5029418;28;20286;-59
2023/01/19 00:15:41;;;;;;;10.30;6.57;;;2.30;99.90;;;;;;5025534;28;20200;-59
2023/01/19 00:18:07;;;;;;;11.73;7.80;;;2.30;99.90;;;;;;5034441;28;20316;-60
2023/01/19 00:20:37;;;;;;;13.20;8.50;;;2.40;99.90;;;;;;5035129;28;20662;-59
2023/01/19 00:23:04;;;;;;;9.47;7.50;;;2.30;99.90;;;;;;5037697;28;20203;-59
2023/01/19 00:25:31;;;;;;;11.43;7.20;;;2.30;99.90;;;;;;5035716;28;20193;-59
2023/01/19 00:27:58;;;;;;;11.23;7.57;;;2.30;99.90;;;;;;5036972;28;20726;-60
2023/01/19 00:30:27;;;;;;;11.53;6.03;;;2.30;99.90;;;;;;5035894;28;20211;-59
2023/01/19 00:32:54;;;;;;;12.57;7.90;;;2.30;99.90;;;;;;5036959;28;20278;-59
2023/01/19 00:35:21;;;;;;;10.90;7.90;;;2.30;99.90;;;;;;5037481;28;20282;-59
2023/01/19 00:37:48;;;;;;;13.43;7.83;;;2.30;99.90;;;;;;5035740;28;20220;-60
2023/01/19 00:40:15;;;;;;;13.87;7.70;;;2.30;99.90;;;;;;5035784;28;20283;-59
2023/01/19 00:42:47;;;;;;;12.43;7.40;;;2.20;99.90;;;;;;5033582;28;20200;-60
2023/01/19 00:45:15;;;;;;;14.67;8.50;;;2.20;99.90;;;;;;5037966;28;20627;-60
2023/01/19 00:47:42;;;;;;;12.50;7.53;;;2.20;99.90;;;;;;5037166;28;21202;-59
2023/01/19 00:50:10;;;;;;;14.57;8.27;;;2.10;99.90;;;;;;5038410;28;20295;-60
2023/01/19 00:52:38;;;;;;;11.90;7.70;;;2.10;99.90;;;;;;5037617;28;20216;-59
2023/01/19 00:55:07;;;;;;;12.77;8.17;;;2.10;99.90;;;;;;5037737;28;20665;-60
2023/01/19 00:57:34;;;;;;;9.97;7.90;;;2.10;99.90;;;;;;5036330;28;20265;-60
2023/01/19 01:00:05;;;;;;;14.93;8.30;;;2.10;99.90;;;;;;5035162;28;20298;-62
2023/01/19 01:02:33;;;;;;;12.60;7.83;;;2.10;99.90;;;;;;5036401;28;20262;-59
2023/01/19 01:05:01;;;;;;;13.77;8.70;;;2.10;99.90;;;;;;5031372;28;20207;-60
2023/01/19 01:07:29;;;;;;;12.97;8.67;;;2.10;99.90;;;;;;5030166;28;20540;-60
2023/01/19 01:09:56;;;;;;;11.53;8.07;;;2.10;99.90;;;;;;5027807;28;20203;-59
2023/01/19 01:12:23;;;;;;;13.97;8.53;;;2.10;99.90;;;;;;5029560;28;20237;-59
2023/01/19 01:14:50;;;;;;;16.80;7.60;;;2.20;99.90;;;;;;5030905;28;20210;-59
2023/01/19 01:17:16;;;;;;;13.13;8.00;;;2.20;99.90;;;;;;5035681;28;20203;-59
2023/01/19 01:19:43;;;;;;;20.57;7.67;;;2.20;99.90;;;;;;5037037;28;20678;-60
2023/01/19 01:22:10;;;;;;;12.40;7.50;;;2.20;99.90;;;;;;5038765;28;20266;-59
2023/01/19 01:24:37;;;;;;;13.33;6.87;;;2.20;99.90;;;;;;5036428;28;20617;-60
2023/01/19 01:27:04;;;;;;;10.57;6.63;;;2.20;99.90;;;;;;5036779;28;20564;-59
2023/01/19 01:29:34;;;;;;;10.87;6.37;;;2.20;99.90;;;;;;5036478;28;20207;-59
2023/01/19 01:32:01;;;;;;;11.00;7.20;;;2.20;99.90;;;;;;5033671;28;21518;-62
2023/01/19 01:34:28;;;;;;;12.03;6.90;;;2.30;99.90;;;;;;5029977;28;20837;-59
2023/01/19 01:36:54;;;;;;;13.33;7.37;;;2.20;99.90;;;;;;5035898;28;20564;-59
2023/01/19 01:39:21;;;;;;;14.47;6.47;;;2.20;99.90;;;;;;5028985;28;20251;-59
2023/01/19 01:41:48;;;;;;;12.17;6.10;;;2.20;99.90;;;;;;5028815;28;20219;-61
2023/01/19 01:45:04;;;;;;;11.57;7.07;;;2.10;99.90;;;;;;5035901;28;20202;-59
2023/01/19 01:47:45;;;;;;;9.97;6.23;;;2.00;99.90;;;;;;5003417;28;20240;-60
2023/01/19 01:50:19;;;;;;;12.23;7.50;;;2.00;99.90;;;;;;5037577;28;20690;-59
2023/01/19 01:53:09;;;;;;;9.47;6.13;;;1.90;99.90;;;;;;5036119;28;20613;-60
2023/01/19 01:55:42;;;;;;;9.73;5.87;;;1.70;99.90;;;;;;5036444;28;20224;-59
2023/01/19 01:58:10;;;;;;;13.30;6.90;;;1.60;99.90;;;;;;5037363;28;20207;-59
2023/01/19 02:03:25;;;;;;;9.37;6.53;;;1.60;99.90;;;;;;5037253;28;20283;-60
2023/01/19 02:05:56;;;;;;;11.20;6.20;;;1.60;99.90;;;;;;5036633;28;20224;-59
2023/01/19 02:14:07;;;;;;;8.43;5.33;;;1.40;99.90;;;;;;5033130;28;20205;-59
2023/01/19 02:16:36;;;;;;;10.37;6.17;;;1.40;99.90;;;;;;5033255;28;20227;-60
2023/01/19 02:19:06;;;;;;;8.07;5.67;;;1.40;99.90;;;;;;5037177;28;20218;-59
2023/01/19 02:21:58;;;;;;;7.30;5.60;;;1.40;99.90;;;;;;5034227;28;20291;-60
2023/01/19 02:24:26;;;;;;;7.33;4.90;;;1.40;99.90;;;;;;5037299;28;20397;-59
2023/01/19 02:26:54;;;;;;;5.80;4.63;;;1.40;99.90;;;;;;5037807;28;20215;-59
2023/01/19 02:29:23;;;;;;;7.63;4.90;;;1.30;99.90;;;;;;5037650;28;20241;-61
2023/01/19 02:31:51;;;;;;;7.87;5.87;;;1.30;99.90;;;;;;5036263;28;20235;-59
2023/01/19 02:34:19;;;;;;;7.03;4.63;;;1.30;99.90;;;;;;5034128;28;20291;-60
2023/01/19 02:36:57;;;;;;;6.57;5.20;;;1.30;99.90;;;;;;5040635;28;20228;-59
2023/01/19 02:39:35;;;;;;;8.33;4.70;;;1.30;99.90;;;;;;5035938;28;20323;-59
2023/01/19 02:42:08;;;;;;;6.43;5.20;;;1.30;99.90;;;;;;5039711;28;20668;-59
2023/01/19 02:44:36;;;;;;;9.70;6.50;;;1.20;99.90;;;;;;5040094;28;20759;-59
2023/01/19 02:47:03;;;;;;;6.37;4.73;;;1.30;99.90;;;;;;5036989;28;20319;-59
2023/01/19 02:49:30;;;;;;;7.17;5.20;;;1.20;99.90;;;;;;5038968;28;20619;-60
2023/01/19 02:51:59;;;;;;;8.40;5.47;;;1.10;99.90;;;;;;5039353;28;20197;-61
2023/01/19 02:55:17;;;;;;;7.30;5.40;;;1.20;99.90;;;;;;5039731;28;20643;-59
2023/01/19 02:58:21;;;;;;;8.37;4.90;;;1.20;99.90;;;;;;4960379;28;20321;-59
2023/01/19 03:01:07;;;;;;;6.63;4.90;;;1.40;99.90;;;;;;4914008;28;20583;-59
2023/01/19 03:03:55;;;;;;;6.87;4.90;;;1.30;99.90;;;;;;4952913;28;20642;-60
2023/01/19 03:06:33;;;;;;;5.93;4.17;;;1.40;99.90;;;;;;4959794;28;20741;-59
2023/01/19 03:09:37;;;;;;;6.60;4.03;;;1.40;99.90;;;;;;4956821;28;20305;-61
2023/01/19 03:12:13;;;;;;;6.80;4.73;;;1.50;99.90;;;;;;4918442;28;20598;-59
2023/01/19 03:14:45;;;;;;;5.87;3.87;;;1.70;99.90;;;;;;4958412;28;20238;-59
2023/01/19 03:17:15;;;;;;;6.17;4.80;;;1.60;99.90;;;;;;4953090;28;20564;-60
2023/01/19 03:19:46;;;;;;;5.57;4.40;;;1.60;99.90;;;;;;4955931;28;20245;-59
2023/01/19 03:22:20;;;;;;;6.00;4.43;;;1.50;99.90;;;;;;4957365;28;20200;-60
2023/01/19 03:24:48;;;;;;;6.10;3.73;;;1.40;99.90;;;;;;4956827;28;20294;-59
2023/01/19 03:27:39;;;;;;;6.40;4.07;;;1.40;99.90;;;;;;4955677;28;20635;-60
2023/01/19 03:30:12;;;;;;;5.67;3.70;;;1.50;99.90;;;;;;4956267;28;20735;-59
2023/01/19 03:32:46;;;;;;;5.27;3.43;;;1.40;99.90;;;;;;5020204;28;20342;-59
2023/01/19 03:35:15;;;;;;;6.40;3.60;;;1.40;99.90;;;;;;5021056;28;20211;-60
2023/01/19 03:37:44;;;;;;;3.97;3.00;;;1.40;99.90;;;;;;5037456;28;20280;-60
2023/01/19 03:40:12;;;;;;;4.27;2.83;;;1.40;99.90;;;;;;5036537;28;20540;-60
2023/01/19 03:42:41;;;;;;;3.97;2.90;;;1.40;99.90;;;;;;5037725;28;20212;-60
2023/01/19 03:45:09;;;;;;;3.47;2.67;;;1.50;99.90;;;;;;5037143;28;20200;-60
2023/01/19 03:47:36;;;;;;;4.13;2.30;;;1.40;99.90;;;;;;5034640;28;20236;-59
2023/01/19 03:50:06;;;;;;;2.97;2.00;;;1.40;99.90;;;;;;5034766;28;20243;-59
2023/01/19 03:52:33;;;;;;;2.90;1.87;;;1.60;99.90;;;;;;5038056;28;20211;-59
2023/01/19 03:55:02;;;;;;;1.60;1.00;;;1.50;99.90;;;;;;5036983;28;20287;-60
2023/01/19 03:57:30;;;;;;;2.37;0.80;;;1.60;99.90;;;;;;5038123;28;20291;-59
2023/01/19 03:59:57;;;;;;;1.67;0.60;;;1.70;99.90;;;;;;5035412;28;20237;-62
2023/01/19 04:02:24;;;;;;;0.57;0.57;;;1.60;99.90;;;;;;5029490;28;20295;-59
2023/01/19 04:04:50;;;;;;;2.00;0.80;;;1.50;99.90;;;;;;5035753;28;20211;-59
2023/01/19 04:07:17;;;;;;;0.50;0.50;;;1.50;99.90;;;;;;5031379;28;20292;-59
2023/01/19 04:09:44;;;;;;;0.80;0.80;;;1.40;99.90;;;;;;5038053;28;20211;-59
2023/01/19 04:12:11;;;;;;;0.40;0.40;;;1.30;99.90;;;;;;5035734;28;20218;-61
2023/01/19 04:14:37;;;;;;;3.40;0.70;;;1.30;99.90;;;;;;5039053;28;20204;-59
2023/01/19 04:17:04;;;;;;;0.60;0.60;;;1.30;99.90;;;;;;5033433;28;20256;-61
2023/01/19 04:19:31;;;;;;;1.37;0.90;;;1.30;99.90;;;;;;5034100;28;20218;-59
2023/01/19 04:21:58;;;;;;;0.60;0.60;;;1.30;99.90;;;;;;5037747;28;20299;-59
2023/01/19 04:24:26;;;;;;;0.50;0.50;;;1.20;99.90;;;;;;5035952;28;20310;-59
2023/01/19 04:26:53;;;;;;;0.87;0.60;;;1.20;99.90;;;;;;5035962;28;20193;-58
2023/01/19 04:29:19;;;;;;;0.60;0.60;;;1.20;99.90;;;;;;5035861;28;20205;-59
2023/01/19 04:31:46;;;;;;;1.43;0.60;;;1.20;99.90;;;;;;5036515;28;20239;-60
2023/01/19 04:34:13;;;;;;;0.70;0.70;;;1.30;99.90;;;;;;5032759;28;20649;-59
2023/01/19 04:36:40;;;;;;;0.50;0.43;;;1.40;99.90;;;;;;5037038;28;20458;-59
2023/01/19 04:39:08;;;;;;;0.50;0.50;;;1.30;99.90;;;;;;5038490;28;20750;-58
2023/01/19 04:41:34;;;;;;;0.97;0.40;;;1.20;99.90;;;;;;5038440;28;20208;-59
2023/01/19 04:44:01;;;;;;;0.33;0.30;;;1.20;99.90;;;;;;5039077;28;20667;-59
2023/01/19 04:46:28;;;;;;;1.63;0.40;;;1.10;99.90;;;;;;5038740;28;20676;-59
2023/01/19 04:48:55;;;;;;;0.30;0.30;;;1.10;99.90;;;;;;5038994;28;20204;-60
2023/01/19 04:51:21;;;;;;;0.30;0.30;;;1.10;99.90;;;;;;5037674;28;20206;-59
2023/01/19 04:53:48;;;;;;;0.80;0.80;;;1.10;99.90;;;;;;5036261;28;20226;-59
2023/01/19 04:56:15;;;;;;;0.57;0.43;;;1.10;99.90;;;;;;5036459;28;20609;-59
2023/01/19 04:58:42;;;;;;;0.40;0.40;;;1.10;99.90;;;;;;5037342;28;20215;-59
2023/01/19 05:01:09;;;;;;;1.30;0.70;;;1.10;99.90;;;;;;5034353;28;20219;-60
2023/01/19 05:03:36;;;;;;;1.57;0.53;;;1.10;99.90;;;;;;5036818;28;20296;-60
2023/01/19 05:06:02;;;;;;;1.77;0.70;;;1.10;99.90;;;;;;5038990;28;20573;-59
2023/01/19 05:08:29;;;;;;;0.80;0.70;;;1.00;99.90;;;;;;5052994;28;20200;-59
2023/01/19 05:10:56;;;;;;;1.47;0.97;;;1.10;99.90;;;;;;5038115;28;20238;-59
2023/01/19 05:13:23;;;;;;;0.90;0.70;;;1.00;99.90;;;;;;5036625;28;20843;-59
2023/01/19 05:15:50;;;;;;;1.43;0.90;;;1.00;99.90;;;;;;5036849;28;20331;-60
2023/01/19 05:18:17;;;;;;;1.33;1.10;;;1.00;99.90;;;;;;5037209;28;20227;-60
2023/01/19 05:20:44;;;;;;;1.60;0.97;;;1.10;99.90;;;;;;5038005;28;20208;-59
2023/01/19 05:23:11;;;;;;;1.63;1.00;;;1.10;99.90;;;;;;5037166;28;20680;-59
2023/01/19 05:25:38;;;;;;;1.00;0.90;;;1.10;99.90;;;;;;5036805;28;20715;-59
2023/01/19 05:28:04;;;;;;;2.17;1.03;;;1.00;99.90;;;;;;5038276;28;20207;-59
2023/01/19 05:30:31;;;;;;;2.93;1.10;;;1.10;99.90;;;;;;5037426;28;20212;-59
2023/01/19 05:32:58;;;;;;;4.83;1.63;;;1.10;99.90;;;;;;5036273;28;20545;-59
2023/01/19 05:35:25;;;;;;;2.30;1.80;;;1.20;99.90;;;;;;5038391;28;20648;-59
2023/01/19 05:38:01;;;;;;;1.63;1.50;;;1.10;99.90;;;;;;5036683;28;20231;-59
2023/01/19 05:40:28;;;;;;;2.77;1.40;;;1.20;99.90;;;;;;5034968;28;20326;-59
2023/01/19 05:42:59;;;;;;;3.73;1.57;;;1.20;99.90;;;;;;5033890;28;20330;-59
2023/01/19 05:45:27;;;;;;;3.37;1.77;;;1.30;99.90;;;;;;5033887;28;20296;-58
2023/01/19 05:47:54;;;;;;;4.00;2.10;;;1.30;99.90;;;;;;5035301;28;20236;-59
2023/01/19 05:50:21;;;;;;;2.93;1.43;;;1.30;99.90;;;;;;5035297;28;20247;-64
2023/01/19 05:52:48;;;;;;;3.57;1.60;;;1.40;99.90;;;;;;5040747;28;20421;-59
2023/01/19 05:55:15;;;;;;;4.97;1.37;;;1.40;99.90;;;;;;5037857;28;20287;-59
2023/01/19 05:57:42;;;;;;;3.60;1.47;;;1.40;99.90;;;;;;5035190;28;20216;-59
2023/01/19 06:00:09;;;;;;;2.80;1.47;;;1.50;99.90;;;;;;5040159;28;20212;-59
2023/01/19 06:02:36;;;;;;;2.50;1.10;;;1.40;99.90;;;;;;5033871;28;20644;-59
2023/01/19 06:05:03;;;;;;;2.53;1.40;;;1.40;99.90;;;;;;5036151;28;20731;-59
2023/01/19 06:07:33;;;;;;;1.87;1.20;;;1.40;99.90;;;;;;5032320;28;20282;-59
2023/01/19 06:10:00;;;;;;;1.87;1.20;;;1.50;99.90;;;;;;5037910;28;20310;-60
2023/01/19 06:12:27;;;;;;;2.27;1.50;;;1.50;99.90;;;;;;5040578;28;20246;-60
2023/01/19 06:14:53;;;;;;;3.93;1.43;;;1.50;99.90;;;;;;5039654;28;20254;-59
2023/01/19 06:17:20;;;;;;;1.47;1.20;;;1.50;99.90;;;;;;5040298;28;20211;-59
2023/01/19 06:19:47;;;;;;;3.20;1.33;;;1.50;99.90;;;;;;5039343;28;20294;-61
2023/01/19 06:22:14;;;;;;;2.10;1.23;;;1.60;99.90;;;;;;5040179;28;20214;-59
2023/01/19 06:24:41;;;;;;;7.27;1.50;;;1.60;99.90;;;;;;5037803;28;20231;-59
2023/01/19 06:27:08;;;;;;;4.27;1.53;;;1.60;99.90;;;;;;5039849;28;20232;-59
2023/01/19 06:29:34;;;;;;;3.70;1.43;;;1.60;99.90;;;;;;5039493;28;20238;-59
2023/01/19 06:32:02;;;;;;;1.17;1.07;;;1.70;99.90;;;;;;5038791;28;20664;-59
2023/01/19 06:34:28;;;;;;;4.13;2.17;;;1.70;99.90;;;;;;5039714;28;20196;-59
2023/01/19 06:36:55;;;;;;;2.90;1.43;;;1.70;99.90;;;;;;5040863;28;20645;-60
2023/01/19 06:39:23;;;;;;;5.57;2.00;;;1.70;99.90;;;;;;5039196;28;20203;-59
2023/01/19 06:41:50;;;;;;;4.77;2.77;;;1.80;99.90;;;;;;5039863;28;20600;-60
2023/01/19 06:44:17;;;;;;;2.67;2.43;;;1.70;99.90;;;;;;5039465;28;20206;-59
2023/01/19 06:46:44;;;;;;;3.97;2.80;;;1.80;99.90;;;;;;5033025;28;20241;-59
2023/01/19 06:49:10;;;;;;;3.23;2.93;;;1.80;99.90;;;;;;5026364;28;20207;-59
2023/01/19 06:51:37;;;;;;;4.90;3.43;;;1.80;99.90;;;;;;5022085;28;20296;-59
2023/01/19 06:54:04;;;;;;;5.10;3.53;;;1.80;99.90;;;;;;5027975;28;20588;-59
2023/01/19 06:56:31;;;;;;;6.97;3.67;;;1.80;99.90;;;;;;5025543;28;20205;-59
2023/01/19 06:58:58;;;;;;;5.07;4.17;;;1.80;99.90;;;;;;5030346;28;20200;-59
2023/01/19 07:01:25;;;;;;;7.23;4.20;;;1.80;99.90;;;;;;5019460;28;20938;-60
2023/01/19 07:03:53;;;;;;;6.47;4.17;;;1.80;99.90;;;;;;5023596;28;20223;-61
2023/01/19 07:06:20;;;;;;;8.20;4.73;;;1.80;99.90;;;;;;5018614;28;20835;-60
2023/01/19 07:08:46;;;;;;;8.53;5.27;;;1.80;99.90;;;;;;5029230;28;20220;-59
2023/01/19 07:11:14;;;;;;;13.20;5.10;;;1.80;99.90;;;;;;5024794;28;20230;-59
2023/01/19 07:13:58;;;;;;;6.10;4.67;;;1.80;99.90;;;;;;5027275;28;20223;-59
2023/01/19 07:16:25;;;;;;;14.97;5.57;;;1.80;99.90;;;;;;5034318;28;20234;-59
2023/01/19 07:18:52;;;;;;;9.20;5.73;;;1.80;99.90;;;;;;5028543;28;20201;-59
2023/01/19 07:21:19;;;;;;;8.93;6.20;;;1.90;99.90;;;;;;5024368;28;20208;-59
2023/01/19 07:23:51;;;;;;;9.33;6.63;;;1.90;99.90;;;;;;5029542;28;20604;-60
2023/01/19 07:26:20;;;;;;;11.83;7.40;;;1.90;99.90;;;;;;4667839;28;9999771;-60
2023/01/19 07:28:47;;;;;;;12.63;7.53;;;2.00;99.90;;;;;;5021366;28;20661;-61
2023/01/19 07:31:15;;;;;;;15.10;8.13;;;2.00;99.90;;;;;;5027900;28;20273;-60
2023/01/19 07:33:42;;;;;;;15.43;8.50;;;2.00;99.90;;;;;;5034673;28;20604;-59
2023/01/19 07:36:09;;;;;;;12.47;8.20;;;2.00;99.90;;;;;;5033749;28;20232;-60
2023/01/19 07:38:35;;;;;;;14.23;9.17;;;2.10;99.90;;;;;;5032022;28;20633;-59
2023/01/19 07:41:06;;;;;;;13.13;8.77;;;2.10;99.90;;;;;;5029094;28;20702;-60
2023/01/19 07:43:34;;;;;;;14.53;9.17;;;2.10;99.90;;;;;;5027389;28;20229;-59
2023/01/19 07:46:02;;;;;;;15.30;8.50;;;2.10;99.90;;;;;;5035650;28;20276;-59
2023/01/19 07:48:30;;;;;;;14.03;10.93;;;2.10;99.90;;;;;;5032392;28;20266;-60
2023/01/19 07:51:04;;;;;;;12.33;8.13;;;2.10;99.90;;;;;;5033517;28;20232;-59
2023/01/19 07:53:31;;;;;;;13.10;9.30;;;2.10;99.90;;;;;;5032862;28;20203;-59
2023/01/19 07:55:58;;;;;;;17.10;8.50;;;2.10;99.90;;;;;;5029014;28;20220;-61
2023/01/19 07:58:26;;;;;;;15.50;8.67;;;2.10;99.90;;;;;;5030388;28;20668;-62
2023/01/19 08:00:52;;;;;;;15.17;8.80;;;2.20;99.90;;;;;;5032609;28;20214;-60
2023/01/19 08:03:19;;;;;;;15.67;9.67;;;2.20;99.90;;;;;;5033305;28;20208;-65
2023/01/19 08:05:51;;;;;;;12.73;8.47;;;2.20;99.90;;;;;;5023486;28;20679;-61
2023/01/19 08:08:19;;;;;;;11.23;8.50;;;2.20;99.90;;;;;;5019172;28;20204;-59
2023/01/19 08:10:49;;;;;;;15.40;9.03;;;2.20;99.90;;;;;;5028274;28;20197;-61
2023/01/19 08:13:16;;;;;;;15.27;9.70;;;2.20;99.90;;;;;;5024543;28;20643;-59
2023/01/19 08:15:43;;;;;;;14.40;8.87;;;2.30;99.90;;;;;;5026223;28;20236;-60
2023/01/19 08:18:10;;;;;;;12.43;8.33;;;2.40;99.90;;;;;;5025119;28;20208;-60
2023/01/19 08:20:37;;;;;;;16.23;7.97;;;2.50;99.90;;;;;;5031808;28;20220;-67
2023/01/19 08:23:04;;;;;;;17.37;7.77;;;2.50;99.90;;;;;;5030635;28;20200;-60
2023/01/19 08:25:33;;;;;;;9.47;7.17;;;2.60;99.90;;;;;;5030953;28;20227;-61
2023/01/19 08:28:01;;;;;;;12.03;6.87;;;2.60;99.90;;;;;;5031892;28;20554;-60
2023/01/19 08:30:29;;;;;;;15.03;7.20;;;2.60;99.90;;;;;;5030787;28;20236;-59
2023/01/19 08:33:02;;;;;;;9.30;5.77;;;2.80;99.90;;;;;;5033098;28;20208;-59
2023/01/19 08:35:30;;;;;;;13.53;6.67;;;2.70;99.90;;;;;;5031632;28;20290;-60
2023/01/19 08:38:00;;;;;;;10.17;5.93;;;2.80;99.90;;;;;;5033348;28;20203;-61
2023/01/19 08:40:28;;;;;;;13.30;6.20;;;2.60;99.90;;;;;;5031111;28;20217;-60
2023/01/19 08:43:15;;;;;;;8.83;5.37;;;2.60;99.90;;;;;;5036216;28;20235;-61
2023/01/19 08:45:47;;;;;;;8.77;5.93;;;2.60;99.90;;;;;;5035956;28;20663;-64
2023/01/19 08:48:17;;;;;;;12.60;6.63;;;2.50;99.90;;;;;;5033376;28;20345;-60
2023/01/19 08:50:48;;;;;;;15.53;6.27;;;2.40;99.90;;;;;;5030436;28;20672;-59
2023/01/19 08:53:15;;;;;;;17.60;6.90;;;2.40;99.90;;;;;;5030962;28;20200;-59
2023/01/19 08:55:42;;;;;;;16.83;6.80;;;2.50;99.90;;;;;;5029854;28;20814;-61
2023/01/19 08:58:09;;;;;;;13.70;6.83;;;2.40;99.90;;;;;;5031477;28;20261;-59
2023/01/19 09:00:37;;;;;;;12.13;6.80;;;2.40;99.90;;;;;;5031262;28;20499;-60
2023/01/19 09:03:06;;;;;;;19.53;7.73;;;2.40;99.90;;;;;;5034176;28;20200;-61
2023/01/19 09:05:36;;;;;;;15.13;7.53;;;2.30;99.90;;;;;;5033133;28;20258;-59
2023/01/19 09:08:06;;;;;;;18.97;8.20;;;2.30;99.90;;;;;;5017947;28;20193;-59
2023/01/19 09:10:34;;;;;;;14.97;7.77;;;2.30;99.90;;;;;;5030424;28;20192;-60
2023/01/19 09:13:07;;;;;;;14.13;7.67;;;2.30;99.90;;;;;;5033298;28;20201;-59
2023/01/19 09:15:36;;;;;;;12.97;7.73;;;2.30;99.90;;;;;;5031141;28;20603;-59
2023/01/19 09:18:05;;;;;;;15.77;8.33;;;2.30;99.90;;;;;;5029962;28;20238;-59
2023/01/19 09:20:34;;;;;;;18.67;8.90;;;2.30;99.90;;;;;;5035924;28;20232;-59
2023/01/19 09:23:01;;;;;;;19.13;9.17;;;2.40;99.90;;;;;;5035927;28;20267;-60
2023/01/19 09:25:28;;;;;;;20.93;8.57;;;2.30;99.90;;;;;;5033288;28;20283;-59
2023/01/19 09:27:55;;;;;;;17.37;10.27;;;2.30;99.90;;;;;;5035193;28;20739;-60
2023/01/19 09:30:22;;;;;;;25.87;11.70;;;2.30;99.90;;;;;;5035306;28;20204;-60
2023/01/19 09:32:48;;;;;;;23.87;12.10;;;2.20;99.90;;;;;;5034691;28;20223;-61
2023/01/19 09:35:15;;;;;;;20.47;12.07;;;2.20;99.90;;;;;;5031481;28;20214;-60
2023/01/19 09:37:46;;;;;;;27.40;14.03;;;2.20;99.90;;;;;;5033752;28;20192;-60
2023/01/19 09:40:14;;;;;;;22.23;12.30;;;2.30;99.90;;;;;;5022526;28;20245;-59
2023/01/19 09:42:56;;;;;;;25.33;13.67;;;2.30;99.90;;;;;;5036549;28;20208;-60
2023/01/19 09:46:00;;;;;;;25.27;13.17;;;2.20;99.90;;;;;;5037033;28;20204;-60
2023/01/19 09:48:52;;;;;;;19.57;12.87;;;2.30;99.90;;;;;;4973922;28;20291;-59
2023/01/19 09:51:27;;;;;;;25.57;12.43;;;2.40;99.90;;;;;;4975962;28;20212;-59
2023/01/19 09:53:58;;;;;;;21.00;12.60;;;2.60;99.90;;;;;;4977730;28;20290;-59
2023/01/19 09:56:28;;;;;;;28.23;12.17;;;2.90;99.90;;;;;;4969795;28;20483;-59
2023/01/19 09:58:54;;;;;;;25.57;12.70;;;2.90;99.90;;;;;;4974283;28;20242;-61
2023/01/19 10:01:33;;;;;;;23.17;12.90;;;3.00;99.90;;;;;;4968723;28;20677;-60
2023/01/19 10:04:22;;;;;;;21.93;12.63;;;3.10;99.90;;;;;;4974634;28;20210;-60
2023/01/19 10:06:50;;;;;;;23.27;11.47;;;3.30;99.90;;;;;;4974208;28;20669;-60
2023/01/19 10:10:05;;;;;;;18.70;10.97;;;3.50;99.90;;;;;;4973167;28;20226;-60
2023/01/19 10:12:42;;;;;;;25.40;10.80;;;3.70;99.90;;;;;;4901644;28;20594;-59
2023/01/19 10:15:44;;;;;;;17.40;9.67;;;3.70;99.90;;;;;;4974940;28;20242;-60
2023/01/19 10:18:31;;;;;;;19.53;10.40;;;3.80;99.90;;;;;;4949725;28;20659;-60
2023/01/19 10:21:09;;;;;;;18.33;9.27;;;4.00;99.90;;;;;;4971977;28;20907;-60
2023/01/19 10:23:54;;;;;;;23.00;9.07;;;4.10;99.90;;;;;;5032814;28;20725;-60
2023/01/19 10:26:32;;;;;;;15.63;8.40;;;4.10;99.90;;;;;;5034680;28;20571;-59
2023/01/19 10:29:36;;;;;;;12.63;8.77;;;4.10;99.90;;;;;;5037021;28;20539;-59
2023/01/19 10:32:11;;;;;;;18.83;7.90;;;4.20;99.90;;;;;;5036438;28;20656;-59
2023/01/19 10:34:40;;;;;;;16.50;8.50;;;4.20;99.90;;;;;;5035076;28;20211;-60
2023/01/19 10:37:29;;;;;;;11.50;7.23;;;4.20;99.90;;;;;;5029690;28;20812;-59
2023/01/19 10:40:21;;;;;;;19.57;8.20;;;4.10;99.90;;;;;;5035089;28;20224;-60
2023/01/19 10:42:48;;;;;;;15.83;7.37;;;4.10;99.90;;;;;;5023526;28;20259;-60
2023/01/19 10:45:17;;;;;;;14.07;7.30;;;4.10;99.90;;;;;;5033815;28;20695;-59
2023/01/19 10:47:46;;;;;;;17.00;7.40;;;4.10;99.90;;;;;;5034712;28;20261;-60
2023/01/19 10:50:22;;;;;;;10.97;7.70;;;4.20;99.90;;;;;;5033396;28;20201;-59
2023/01/19 10:52:52;;;;;;;14.93;7.23;;;4.10;99.90;;;;;;5032522;28;20527;-60
2023/01/19 10:55:36;;;;;;;11.77;7.87;;;4.20;99.90;;;;;;5026959;28;20236;-61
2023/01/19 10:58:05;;;;;;;11.43;6.93;;;4.20;99.90;;;;;;5016745;28;20209;-59
2023/01/19 11:00:36;;;;;;;10.00;6.63;;;4.20;99.90;;;;;;5023906;28;20237;-62
2023/01/19 11:03:21;;;;;;;14.90;7.17;;;4.40;99.90;;;;;;5025823;28;20308;-60
2023/01/19 11:05:48;;;;;;;13.67;7.00;;;4.40;99.90;;;;;;5030956;28;20255;-60
2023/01/19 11:08:42;;;;;;;14.73;6.93;;;4.40;99.90;;;;;;5020922;28;20240;-59
2023/01/19 11:11:11;;;;;;;11.27;6.90;;;4.50;99.90;;;;;;5022156;28;20628;-62
2023/01/19 11:13:42;;;;;;;16.27;6.60;;;4.60;99.90;;;;;;5024099;28;20293;-60
2023/01/19 11:16:29;;;;;;;17.47;6.93;;;4.70;99.90;;;;;;5027392;28;20200;-59
2023/01/19 11:18:57;;;;;;;14.97;6.60;;;5.10;99.90;;;;;;5029235;28;20302;-63
2023/01/19 11:21:27;;;;;;;11.13;5.30;;;5.00;99.90;;;;;;5030844;28;20235;-59
2023/01/19 11:23:57;;;;;;;12.93;6.37;;;5.10;99.90;;;;;;5030079;28;20237;-60
2023/01/19 11:26:25;;;;;;;14.47;5.93;;;5.20;99.90;;;;;;5041150;28;20570;-60
2023/01/19 11:28:54;;;;;;;13.67;5.63;;;5.20;99.90;;;;;;5026185;28;20312;-60
2023/01/19 11:31:27;;;;;;;11.60;6.03;;;5.20;99.90;;;;;;5043578;28;20652;-59
2023/01/19 11:33:59;;;;;;;15.87;5.73;;;5.10;99.90;;;;;;5031718;28;20204;-60
2023/01/19 11:36:27;;;;;;;13.80;5.93;;;5.40;99.90;;;;;;5022002;28;20224;-59
2023/01/19 11:38:58;;;;;;;12.17;5.80;;;5.60;99.90;;;;;;5027723;28;20218;-60
2023/01/19 11:41:26;;;;;;;9.80;5.47;;;5.70;99.90;;;;;;5033474;28;20304;-60
2023/01/19 11:44:01;;;;;;;13.77;6.07;;;5.40;99.90;;;;;;5030072;28;20206;-60
2023/01/19 11:46:33;;;;;;;13.47;5.70;;;5.50;99.90;;;;;;5035215;28;20194;-60
2023/01/19 11:49:26;;;;;;;11.50;5.37;;;5.70;99.90;;;;;;5010976;28;20197;-62
2023/01/19 11:52:24;;;;;;;11.63;5.30;;;6.20;99.90;;;;;;5031490;28;20214;-61
2023/01/19 11:55:01;;;;;;;6.63;4.93;;;6.30;99.90;;;;;;5029304;28;20212;-61
2023/01/19 11:57:28;;;;;;;11.57;5.73;;;6.40;99.90;;;;;;5028839;28;20306;-61
2023/01/19 11:59:57;;;;;;;9.10;5.37;;;6.40;99.90;;;;;;5029642;28;20306;-59
2023/01/19 12:02:45;;;;;;;9.80;4.93;;;6.30;99.90;;;;;;5025451;28;22538;-61
2023/01/19 12:05:17;;;;;;;11.00;5.47;;;6.50;99.90;;;;;;5018469;28;20212;-62
2023/01/19 12:07:46;;;;;;;12.93;5.63;;;6.50;99.90;;;;;;5019226;28;20389;-60
2023/01/19 12:10:21;;;;;;;9.73;5.03;;;6.90;99.90;;;;;;5025105;28;20201;-62
2023/01/19 12:12:49;;;;;;;10.37;5.40;;;7.20;99.90;;;;;;5030329;28;20211;-63
2023/01/19 12:15:24;;;;;;;11.00;5.37;;;6.80;99.90;;;;;;5027189;28;20234;-60
2023/01/19 12:17:54;;;;;;;11.47;5.43;;;6.50;99.90;;;;;;5027794;28;20208;-60
2023/01/19 12:20:39;;;;;;;9.23;5.47;;;6.90;99.90;;;;;;5015388;28;20210;-60
2023/01/19 12:23:24;;;;;;;13.37;5.63;;;6.80;99.90;;;;;;5028208;28;20219;-59
2023/01/19 12:26:15;;;;;;;9.10;5.17;;;6.50;99.90;;;;;;5027648;28;20309;-60
2023/01/19 12:28:45;;;;;;;11.90;5.37;;;6.40;99.90;;;;;;5026809;28;20210;-61
2023/01/19 12:31:18;;;;;;;11.20;6.03;;;6.30;99.90;;;;;;5028345;28;20206;-62
2023/01/19 12:33:45;;;;;;;10.90;5.80;;;6.40;99.90;;;;;;5030309;28;20202;-60
2023/01/19 12:36:37;;;;;;;13.53;5.40;;;6.60;99.90;;;;;;5027987;28;20774;-59
2023/01/19 12:39:16;;;;;;;10.03;5.47;;;6.30;99.90;;;;;;5026006;28;20686;-62
2023/01/19 12:41:43;;;;;;;11.17;5.50;;;6.30;99.90;;;;;;5027537;28;20657;-59
2023/01/19 12:44:10;;;;;;;11.73;6.37;;;6.30;99.90;;;;;;5030045;28;20292;-59
2023/01/19 12:46:39;;;;;;;15.13;5.80;;;6.60;99.90;;;;;;5031050;28;20639;-64
2023/01/19 12:49:25;;;;;;;13.53;5.97;;;6.40;99.90;;;;;;5029285;28;20651;-60
2023/01/19 12:52:10;;;;;;;9.93;5.00;;;6.60;99.90;;;;;;5030982;28;20577;-60
2023/01/19 12:55:08;;;;;;;11.43;5.60;;;6.70;99.90;;;;;;5031212;28;20796;-61
2023/01/19 12:57:39;;;;;;;10.07;5.40;;;6.70;99.90;;;;;;5008929;28;20205;-61
2023/01/19 13:00:27;;;;;;;8.67;5.17;;;7.10;99.90;;;;;;5028049;28;20212;-62
2023/01/19 13:02:59;;;;;;;8.07;4.87;;;7.10;99.90;;;;;;5019964;28;20291;-60
2023/01/19 13:05:38;;;;;;;12.97;5.37;;;6.90;99.90;;;;;;5024163;28;20658;-60
2023/01/19 13:08:05;;;;;;;11.67;5.47;;;7.10;99.90;;;;;;5020864;28;20289;-60
2023/01/19 13:11:09;;;;;;;9.90;5.50;;;7.30;99.90;;;;;;5024134;28;20201;-60
2023/01/19 13:13:55;;;;;;;8.53;5.33;;;7.30;99.90;;;;;;5030963;28;20227;-61
2023/01/19 13:16:23;;;;;;;10.50;5.60;;;7.00;99.90;;;;;;5026298;28;20659;-60
2023/01/19 13:19:21;;;;;;;8.73;5.87;;;6.60;99.90;;;;;;5026148;28;20201;-61
2023/01/19 13:21:48;;;;;;;9.33;5.60;;;6.10;99.90;;;;;;5021677;28;20225;-60